Heilmandale, Pennsylvania
Current Conditions -  °F | °C
As of 12:58 AM on Saturday 29 Nov 2014 (Local Time) from KMUI Reporting Station
Clear Clear  
Wind Chill: 26°   Ceiling: Unl
Heat Index: 26°   Visibility: 10mi
Dew Point: 15°   Wind: 3mph
Humidity: 63%   Direction: 240°WSW
Pressure: 30.27"   Gusts: NA
Location:  40.2957°N, 76.4189°W
Report Text: KMUI 290558Z AUTO 24003KT 10SM CLR M03/M09 A3027 RMK AO2 SLP259 T10331094 11019 21040 53006 $
Loading
Personal Weather Stations






























Interactive Weather Map New forecast layout! Learn more

10-Day Weather Forecast

Advertisements
Track Severe Weather on mobile